createdAt,value
2023-02-15T00:01:53.234Z,26.70
2023-02-15T00:04:47.539Z,25.20
2023-02-15T00:07:32.786Z,27.30
2023-02-15T00:10:18.242Z,26.48
2023-02-15T00:13:03.505Z,28.27
2023-02-15T00:15:48.503Z,26.13
2023-02-15T00:18:34.451Z,26.02
2023-02-15T00:21:19.802Z,26.33
2023-02-15T00:24:07.133Z,27.65
2023-02-15T00:26:52.219Z,26.77
2023-02-15T00:29:37.653Z,27.50
2023-02-15T00:32:23.158Z,26.63
2023-02-15T00:35:08.408Z,27.90
2023-02-15T00:37:53.657Z,26.30
2023-02-15T00:40:39.200Z,26.00
2023-02-15T00:43:24.422Z,26.73
2023-02-15T00:46:10.021Z,27.63
2023-02-15T00:48:55.254Z,28.15
2023-02-15T00:51:40.531Z,28.85
2023-02-15T00:54:25.639Z,29.02
2023-02-15T00:57:11.037Z,28.92
2023-02-15T00:59:56.579Z,31.15
2023-02-15T01:02:41.972Z,30.23
2023-02-15T01:05:27.474Z,29.50
2023-02-15T01:08:12.761Z,30.00
2023-02-15T01:10:58.113Z,31.25
2023-02-15T01:13:43.257Z,31.38
2023-02-15T01:16:30.218Z,29.08
2023-02-15T01:19:15.210Z,31.15
2023-02-15T01:22:00.564Z,29.98
2023-02-15T01:24:46.227Z,31.30
2023-02-15T01:27:31.834Z,30.67
2023-02-15T01:30:17.682Z,29.70
2023-02-15T01:33:03.386Z,30.27
2023-02-15T01:35:50.026Z,30.20
2023-02-15T01:38:36.467Z,29.85
2023-02-15T01:41:23.720Z,33.20
2023-02-15T01:44:46.485Z,28.73
2023-02-15T01:47:41.872Z,30.70
2023-02-15T01:50:35.461Z,31.25
2023-02-15T01:53:37.902Z,29.88
2023-02-15T01:56:32.771Z,30.88
2023-02-15T01:59:22.954Z,33.17
2023-02-15T02:02:12.828Z,31.80
2023-02-15T02:05:07.178Z,32.00
2023-02-15T02:07:57.927Z,32.75
2023-02-15T02:10:43.508Z,32.63
2023-02-15T02:13:29.397Z,33.78
2023-02-15T02:16:51.918Z,32.70
2023-02-15T02:20:28.852Z,33.97
2023-02-15T02:23:30.839Z,32.47
2023-02-15T02:26:46.949Z,33.85
2023-02-15T02:29:57.679Z,34.10
2023-02-15T02:33:03.556Z,34.80
2023-02-15T02:36:05.763Z,34.80
2023-02-15T02:39:28.328Z,34.10
2023-02-15T02:42:34.358Z,36.80
2023-02-15T02:45:32.988Z,36.20
2023-02-15T02:48:24.559Z,35.92
2023-02-15T02:51:10.070Z,36.60
2023-02-15T02:53:59.551Z,38.45
2023-02-15T02:56:49.367Z,38.83
2023-02-15T02:59:40.248Z,36.35
2023-02-15T03:02:32.976Z,36.88
2023-02-15T03:05:26.101Z,38.50
2023-02-15T03:08:22.870Z,40.00
2023-02-15T03:11:09.109Z,42.95
2023-02-15T03:13:54.221Z,44.85
2023-02-15T03:16:42.583Z,45.65
2023-02-15T03:19:35.195Z,43.53
2023-02-15T03:22:37.182Z,45.15
2023-02-15T03:25:28.298Z,41.67
2023-02-15T03:28:24.396Z,44.30
2023-02-15T03:31:12.849Z,41.55
2023-02-15T03:34:04.333Z,40.97
2023-02-15T03:37:13.896Z,41.20
2023-02-15T03:40:35.898Z,39.83
2023-02-15T03:43:27.062Z,37.90
2023-02-15T03:46:28.717Z,40.58
2023-02-15T03:49:23.389Z,40.83
2023-02-15T03:52:11.441Z,39.58
2023-02-15T03:54:57.253Z,38.88
2023-02-15T03:58:02.342Z,38.17
2023-02-15T04:01:15.224Z,40.47
2023-02-15T04:04:18.620Z,38.20
2023-02-15T04:07:06.234Z,39.33
2023-02-15T04:10:10.319Z,40.42
2023-02-15T04:12:55.518Z,39.58
2023-02-15T04:15:59.768Z,39.97
2023-02-15T04:19:04.061Z,41.33
2023-02-15T04:22:08.072Z,39.58
2023-02-15T04:25:14.616Z,36.78
2023-02-15T04:28:00.150Z,37.20
2023-02-15T04:30:45.403Z,38.47
2023-02-15T04:33:30.714Z,39.42
2023-02-15T04:36:16.162Z,37.33
2023-02-15T04:39:01.723Z,39.67
2023-02-15T04:41:48.632Z,37.47
2023-02-15T04:44:33.817Z,38.45
2023-02-15T04:47:19.484Z,38.05
2023-02-15T04:50:05.209Z,39.80
2023-02-15T04:52:50.273Z,38.70
2023-02-15T04:55:35.713Z,36.33
2023-02-15T04:58:21.044Z,39.00
2023-02-15T05:01:06.534Z,37.17
2023-02-15T05:03:51.774Z,37.33
2023-02-15T05:06:37.243Z,38.40
2023-02-15T05:09:22.898Z,38.35
2023-02-15T05:12:08.096Z,37.67
2023-02-15T05:14:53.427Z,37.22
2023-02-15T05:17:39.081Z,36.25
2023-02-15T05:20:24.534Z,36.60
2023-02-15T05:23:10.141Z,36.28
2023-02-15T05:26:13.769Z,36.90
2023-02-15T05:28:58.948Z,36.38
2023-02-15T05:31:48.076Z,35.63
2023-02-15T05:34:33.602Z,37.83
2023-02-15T05:37:19.310Z,35.55
2023-02-15T05:40:05.012Z,36.60
2023-02-15T05:42:50.377Z,38.30
2023-02-15T05:45:35.887Z,37.92
2023-02-15T05:48:23.668Z,36.63
2023-02-15T05:51:14.079Z,39.45
2023-02-15T05:53:59.488Z,39.10
2023-02-15T05:56:44.979Z,36.58
2023-02-15T05:59:30.340Z,35.88
2023-02-15T06:02:15.961Z,38.75
2023-02-15T06:05:01.288Z,39.45
2023-02-15T06:07:46.751Z,37.92
2023-02-15T06:10:32.137Z,36.97
2023-02-15T06:13:17.573Z,38.53
2023-02-15T06:16:03.193Z,39.50
2023-02-15T06:18:48.451Z,36.67
2023-02-15T06:21:33.980Z,37.92
2023-02-15T06:24:19.328Z,38.78
2023-02-15T06:27:04.935Z,38.17
2023-02-15T06:29:50.558Z,36.97
2023-02-15T06:32:35.802Z,38.05
2023-02-15T06:35:21.050Z,38.70
2023-02-15T06:38:06.990Z,39.78
2023-02-15T06:40:52.204Z,38.10
2023-02-15T06:43:38.871Z,38.67
2023-02-15T06:46:25.345Z,38.25
2023-02-15T06:49:10.823Z,36.90
2023-02-15T06:51:55.975Z,39.83
2023-02-15T06:54:41.334Z,36.65
2023-02-15T06:57:26.833Z,39.50
2023-02-15T07:00:12.967Z,37.53
2023-02-15T07:02:59.106Z,39.30
2023-02-15T07:05:45.455Z,37.42
2023-02-15T07:08:30.851Z,35.75
2023-02-15T07:11:34.904Z,35.92
2023-02-15T07:14:20.342Z,35.53
2023-02-15T07:17:11.648Z,34.58
2023-02-15T07:19:59.952Z,34.20
2023-02-15T07:22:45.751Z,33.30
2023-02-15T07:25:31.482Z,33.47
2023-02-15T07:28:17.117Z,36.85
2023-02-15T07:31:04.244Z,33.55
2023-02-15T07:33:49.221Z,32.35
2023-02-15T07:36:34.592Z,34.92
2023-02-15T07:39:20.481Z,34.70
2023-02-15T07:42:05.923Z,35.05
2023-02-15T07:44:51.608Z,36.58
2023-02-15T07:47:37.052Z,35.30
2023-02-15T07:50:22.745Z,33.85
2023-02-15T07:53:08.044Z,33.30
2023-02-15T07:55:53.381Z,33.97
2023-02-15T07:58:54.864Z,35.45
2023-02-15T08:01:40.515Z,35.00
2023-02-15T08:04:25.681Z,35.60
2023-02-15T08:07:10.734Z,34.40
2023-02-15T08:09:55.873Z,33.85
2023-02-15T08:12:41.326Z,35.50
2023-02-15T08:15:26.847Z,36.78
2023-02-15T08:18:12.106Z,35.55
2023-02-15T08:20:57.201Z,32.50
2023-02-15T08:23:42.535Z,32.67
2023-02-15T08:26:29.192Z,33.63
2023-02-15T08:29:16.672Z,34.80
2023-02-15T08:32:05.473Z,34.00
2023-02-15T08:34:50.744Z,24.47
2023-02-15T08:37:35.775Z,33.00
2023-02-15T08:40:21.501Z,34.90
2023-02-15T08:43:07.972Z,32.55
2023-02-15T08:45:53.568Z,31.95
2023-02-15T08:48:39.308Z,32.90
2023-02-15T08:51:26.803Z,33.50
2023-02-15T08:54:15.696Z,33.08
2023-02-15T08:57:01.028Z,34.10
2023-02-15T08:59:46.162Z,33.65
2023-02-15T09:02:31.703Z,31.38
2023-02-15T09:05:17.301Z,31.30
2023-02-15T09:08:02.345Z,38.13
2023-02-15T09:10:48.179Z,36.33
2023-02-15T09:13:33.405Z,33.17
2023-02-15T09:16:18.927Z,33.40
2023-02-15T09:19:05.921Z,30.08
2023-02-15T09:21:51.362Z,33.42
2023-02-15T09:24:36.499Z,33.28
2023-02-15T09:27:21.963Z,33.95
2023-02-15T09:30:07.953Z,33.38
2023-02-15T09:32:53.408Z,30.23
2023-02-15T09:35:38.549Z,31.50
2023-02-15T09:38:23.959Z,31.77
2023-02-15T09:41:23.075Z,31.92
2023-02-15T09:44:38.994Z,31.33
2023-02-15T09:47:46.861Z,30.25
2023-02-15T09:50:58.683Z,32.47
2023-02-15T09:54:16.665Z,29.40
2023-02-15T09:57:14.310Z,29.92
2023-02-15T10:00:25.132Z,29.25
2023-02-15T10:03:33.608Z,29.63
2023-02-15T10:06:29.827Z,31.33
2023-02-15T10:09:34.307Z,30.20
2023-02-15T10:12:38.411Z,32.13
2023-02-15T10:15:51.906Z,31.52
2023-02-15T10:19:08.913Z,31.83
2023-02-15T10:22:05.763Z,28.80
2023-02-15T10:25:00.104Z,28.30
2023-02-15T10:27:51.003Z,28.65
2023-02-15T10:30:43.205Z,28.27
2023-02-15T10:33:41.150Z,29.63
2023-02-15T10:37:17.816Z,30.00
2023-02-15T10:40:33.737Z,29.88
2023-02-15T10:43:34.602Z,26.80
2023-02-15T10:46:38.099Z,29.40
2023-02-15T10:49:55.129Z,30.35
2023-02-15T10:52:47.031Z,30.45
2023-02-15T10:55:37.974Z,29.08
2023-02-15T10:58:46.926Z,28.08
2023-02-15T11:01:39.243Z,28.00
2023-02-15T11:04:55.518Z,27.40
2023-02-15T11:07:44.694Z,27.00
2023-02-15T11:11:03.242Z,28.02
2023-02-15T11:13:53.864Z,28.67
2023-02-15T11:16:45.159Z,29.10
2023-02-15T11:19:34.601Z,28.27
2023-02-15T11:22:20.615Z,28.58
2023-02-15T11:25:20.292Z,29.60
2023-02-15T11:28:15.041Z,32.42
2023-02-15T11:31:11.726Z,31.25
2023-02-15T11:34:07.238Z,28.98
2023-02-15T11:36:56.638Z,29.48
2023-02-15T11:39:43.073Z,32.13
2023-02-15T11:42:32.760Z,31.48
2023-02-15T11:45:21.392Z,21.98
2023-02-15T11:48:12.584Z,29.33
2023-02-15T11:50:58.431Z,30.75
2023-02-15T11:53:45.539Z,29.35
2023-02-15T11:56:32.640Z,29.02
2023-02-15T11:59:30.621Z,27.80
2023-02-15T12:02:28.424Z,26.27
2023-02-15T12:05:19.970Z,26.70
2023-02-15T12:08:16.017Z,25.85
2023-02-15T12:11:13.094Z,26.08
2023-02-15T12:14:06.115Z,24.48
2023-02-15T12:16:54.295Z,25.02
2023-02-15T12:19:41.445Z,25.80
2023-02-15T12:22:31.187Z,23.80
2023-02-15T12:25:30.179Z,25.08
2023-02-15T12:28:31.187Z,24.15
2023-02-15T12:31:25.105Z,23.98
2023-02-15T12:34:20.110Z,23.83
2023-02-15T12:37:21.906Z,24.48
2023-02-15T12:40:26.813Z,24.08
2023-02-15T12:43:32.275Z,23.02
2023-02-15T12:46:26.811Z,22.80
2023-02-15T12:49:20.841Z,23.10
2023-02-15T12:52:18.807Z,20.70
2023-02-15T12:55:21.628Z,20.80
2023-02-15T12:58:26.370Z,20.23
2023-02-15T13:01:17.718Z,20.77
2023-02-15T13:04:15.471Z,23.33
2023-02-15T13:07:03.607Z,26.10
2023-02-15T13:09:50.807Z,25.50
2023-02-15T13:12:36.282Z,25.30
2023-02-15T13:15:28.414Z,24.67
2023-02-15T13:18:20.732Z,27.17
2023-02-15T13:21:17.644Z,27.15
2023-02-15T13:24:07.342Z,27.15
2023-02-15T13:27:09.422Z,25.83
2023-02-15T13:30:04.798Z,27.02
2023-02-15T13:32:55.676Z,25.05
2023-02-15T13:35:48.394Z,27.83
2023-02-15T13:38:46.959Z,26.05
2023-02-15T13:41:38.976Z,26.52
2023-02-15T13:45:02.124Z,24.58
2023-02-15T13:48:22.018Z,22.67
2023-02-15T13:51:25.854Z,23.20
2023-02-15T13:54:29.500Z,25.45
2023-02-15T13:57:43.771Z,23.55
2023-02-15T14:00:44.351Z,20.92
2023-02-15T14:03:49.032Z,22.55
2023-02-15T14:06:48.277Z,19.92
2023-02-15T14:09:48.987Z,20.33
2023-02-15T14:12:40.484Z,19.48
2023-02-15T14:15:46.464Z,18.77
2023-02-15T14:19:16.411Z,19.17
2023-02-15T14:22:26.874Z,18.52
2023-02-15T14:25:33.443Z,19.58
2023-02-15T14:28:22.856Z,18.65
2023-02-15T14:31:11.357Z,19.05
2023-02-15T14:33:58.412Z,19.27
2023-02-15T14:36:44.156Z,17.92
2023-02-15T14:40:04.531Z,18.30
2023-02-15T14:42:54.283Z,18.60
2023-02-15T14:51:41.428Z,17.75
2023-02-15T14:54:26.768Z,17.90
2023-02-15T14:57:12.822Z,17.10
2023-02-15T15:00:00.970Z,17.83
2023-02-15T15:02:50.560Z,18.90
2023-02-15T15:08:52.598Z,18.05
2023-02-15T15:11:44.659Z,18.55
2023-02-15T15:14:35.569Z,20.02
2023-02-15T15:17:33.245Z,19.48
2023-02-15T15:20:28.069Z,19.25
2023-02-15T15:23:16.236Z,19.35
2023-02-15T15:26:25.837Z,17.88
2023-02-15T15:29:11.054Z,18.88
2023-02-15T15:32:00.339Z,18.15
2023-02-15T15:35:11.240Z,17.90
2023-02-15T15:38:18.460Z,16.52
2023-02-15T15:41:16.305Z,18.55
2023-02-15T15:44:52.672Z,17.73
2023-02-15T15:48:06.370Z,16.85
2023-02-15T15:50:57.640Z,17.65
2023-02-15T15:53:49.328Z,20.20
2023-02-15T15:56:37.974Z,16.55
2023-02-15T15:59:26.757Z,18.15
2023-02-15T16:02:17.974Z,20.73
2023-02-15T16:05:10.025Z,21.85
2023-02-15T16:07:55.655Z,21.58
2023-02-15T16:10:41.640Z,22.33
2023-02-15T16:13:27.738Z,21.20
2023-02-15T16:16:20.222Z,22.35
2023-02-15T16:19:06.461Z,21.67
2023-02-15T16:21:52.145Z,22.17
2023-02-15T16:24:56.389Z,21.83
2023-02-15T16:27:43.770Z,22.33
2023-02-15T16:30:32.514Z,22.10
2023-02-15T16:33:18.275Z,22.35
2023-02-15T16:36:04.482Z,22.33
2023-02-15T16:38:52.719Z,22.75
2023-02-15T16:41:39.102Z,23.05
2023-02-15T16:44:24.806Z,22.85
2023-02-15T16:47:18.874Z,21.73
2023-02-15T16:50:05.422Z,23.13
2023-02-15T16:52:52.355Z,22.42
2023-02-15T16:55:43.160Z,22.90
2023-02-15T16:58:41.849Z,22.35
2023-02-15T17:01:33.120Z,22.30
2023-02-15T17:04:21.533Z,22.70
2023-02-15T17:07:17.498Z,22.90
2023-02-15T17:10:02.985Z,21.83
2023-02-15T17:12:56.057Z,25.23
2023-02-15T17:15:44.346Z,21.45
2023-02-15T17:18:39.712Z,22.25
2023-02-15T17:21:41.281Z,23.55
2023-02-15T17:24:36.567Z,23.85
2023-02-15T17:27:27.572Z,25.23
2023-02-15T17:30:34.317Z,24.67
2023-02-15T17:33:40.265Z,24.25
2023-02-15T17:36:30.846Z,24.75
2023-02-15T17:39:23.296Z,23.63
2023-02-15T17:42:08.818Z,23.50
2023-02-15T17:44:54.103Z,23.55
2023-02-15T17:47:41.051Z,24.90
2023-02-15T17:50:28.482Z,25.10
2023-02-15T17:53:18.586Z,23.52
2023-02-15T17:56:10.764Z,24.48
2023-02-15T17:58:55.896Z,25.38
2023-02-15T18:02:06.038Z,24.20
2023-02-15T18:05:09.896Z,25.60
2023-02-15T18:08:13.655Z,24.88
2023-02-15T18:11:18.590Z,23.05
2023-02-15T18:14:06.276Z,24.30
2023-02-15T18:16:52.094Z,24.65
2023-02-15T18:19:37.910Z,24.15
2023-02-15T18:22:23.119Z,25.45
2023-02-15T18:25:14.371Z,27.02
2023-02-15T18:27:59.808Z,27.05
2023-02-15T18:30:45.257Z,26.23
2023-02-15T18:33:41.738Z,25.23
2023-02-15T18:36:40.596Z,19.02
2023-02-15T18:39:34.155Z,19.38
2023-02-15T18:42:27.015Z,19.85
2023-02-15T18:45:28.284Z,18.95
2023-02-15T18:48:15.301Z,20.75
2023-02-15T18:51:00.503Z,22.10
2023-02-15T18:53:47.138Z,22.90
2023-02-15T18:56:32.855Z,22.75
2023-02-15T18:59:19.335Z,23.73
2023-02-15T19:02:10.607Z,23.65
2023-02-15T19:04:55.597Z,22.92
2023-02-15T19:07:43.715Z,24.08
2023-02-15T19:10:31.534Z,24.33
2023-02-15T19:13:17.491Z,25.55
2023-02-15T19:16:04.937Z,25.45
2023-02-15T19:18:50.120Z,23.55
2023-02-15T19:21:35.636Z,22.70
2023-02-15T19:24:39.083Z,24.90
2023-02-15T19:27:35.410Z,24.52
2023-02-15T19:30:30.336Z,26.15
2023-02-15T19:33:20.719Z,24.95
2023-02-15T19:36:13.641Z,25.52
2023-02-15T19:38:59.012Z,26.67
2023-02-15T19:41:44.215Z,29.25
2023-02-15T19:44:29.537Z,26.55
2023-02-15T19:47:14.982Z,24.98
2023-02-15T19:50:03.505Z,26.77
2023-02-15T19:52:48.900Z,26.25
2023-02-15T19:55:35.033Z,25.55
2023-02-15T19:58:21.405Z,25.35
2023-02-15T20:01:06.908Z,25.58
2023-02-15T20:03:53.302Z,25.17
2023-02-15T20:06:38.462Z,25.80
2023-02-15T20:09:27.172Z,26.52
2023-02-15T20:12:20.893Z,26.87
2023-02-15T20:15:27.614Z,31.35
2023-02-15T20:18:13.470Z,26.58
2023-02-15T20:20:59.304Z,26.63
2023-02-15T20:23:45.718Z,26.17
2023-02-15T20:26:32.837Z,26.15
2023-02-15T20:29:19.085Z,27.67
2023-02-15T20:32:04.639Z,26.80
2023-02-15T20:34:50.120Z,26.77
2023-02-15T20:37:35.493Z,27.42
2023-02-15T20:40:32.953Z,28.63
2023-02-15T20:43:18.090Z,29.30
2023-02-15T20:46:04.378Z,29.50
2023-02-15T20:48:49.806Z,29.83
2023-02-15T20:51:35.284Z,28.63
2023-02-15T20:54:25.320Z,28.95
2023-02-15T20:57:12.826Z,28.75
2023-02-15T21:00:00.305Z,30.08
2023-02-15T21:02:54.495Z,28.63
2023-02-15T21:05:39.905Z,28.75
2023-02-15T21:08:26.148Z,30.08
2023-02-15T21:11:23.050Z,31.35
2023-02-15T21:14:16.797Z,29.70
2023-02-15T21:17:04.601Z,32.25
2023-02-15T21:19:49.862Z,29.83
2023-02-15T21:22:35.287Z,30.55
2023-02-15T21:25:34.371Z,30.55
2023-02-15T21:28:21.674Z,30.40
2023-02-15T21:31:16.915Z,28.42
2023-02-15T21:34:02.266Z,28.30
2023-02-15T21:36:51.269Z,31.45
2023-02-15T21:39:36.866Z,30.30
2023-02-15T21:42:41.102Z,30.55
2023-02-15T21:45:44.812Z,29.83
2023-02-15T21:48:29.950Z,29.25
2023-02-15T21:51:33.719Z,29.90
2023-02-15T21:54:21.183Z,30.55
2023-02-15T21:57:06.849Z,29.40
2023-02-15T21:59:51.750Z,28.40
2023-02-15T22:02:37.359Z,27.27
2023-02-15T22:05:26.709Z,27.55
2023-02-15T22:08:13.478Z,27.80
2023-02-15T22:10:59.158Z,27.25
2023-02-15T22:13:46.011Z,27.08
2023-02-15T22:16:31.533Z,25.52
2023-02-15T22:19:16.981Z,26.95
2023-02-15T22:22:02.402Z,25.17
2023-02-15T22:24:56.582Z,26.45
2023-02-15T22:27:43.247Z,25.38
2023-02-15T22:30:32.739Z,26.70
2023-02-15T22:33:28.428Z,27.75
2023-02-15T22:36:25.700Z,26.42
2023-02-15T22:39:11.034Z,25.35
2023-02-15T22:41:56.974Z,25.67
2023-02-15T22:44:42.365Z,25.05
2023-02-15T22:47:29.735Z,25.98
2023-02-15T22:50:18.822Z,24.80
2023-02-15T22:53:04.403Z,24.95
2023-02-15T22:55:50.204Z,24.73
2023-02-15T22:58:35.886Z,25.45
2023-02-15T23:01:31.592Z,25.50
2023-02-15T23:04:23.230Z,24.42
2023-02-15T23:07:14.502Z,25.77
2023-02-15T23:09:59.749Z,25.85
2023-02-15T23:13:03.438Z,23.65
2023-02-15T23:15:52.349Z,24.23
2023-02-15T23:18:39.647Z,25.60
2023-02-15T23:21:33.417Z,25.25
2023-02-15T23:24:18.897Z,22.38
2023-02-15T23:27:23.301Z,22.58
2023-02-15T23:30:16.633Z,23.52
2023-02-15T23:33:02.028Z,24.15
2023-02-15T23:35:47.628Z,22.90
2023-02-15T23:38:37.549Z,23.52
2023-02-15T23:41:27.300Z,23.77
2023-02-15T23:44:13.704Z,22.83
2023-02-15T23:46:59.358Z,22.38
2023-02-15T23:49:44.393Z,21.23
2023-02-15T23:52:30.118Z,21.38
2023-02-15T23:55:16.411Z,20.85
2023-02-15T23:58:06.497Z,20.83
